Los Lunas ASC Data

Date Time Air Temperature Relative Humidity Dewpoint Windchill Heat Index Wind Speed Wind Dir. Rain Solar Radiation Soil Temperature
2m 2m 3m 3m 10cm
US/Mountain F % F F F MPH deg in MJ/m^2 F
max avg avg
2020-08-01 00:05:00 68.6 68.0 57.6 68.6 68.6 0.0 0.0 0.0 316.6 0.0 0.00 0.0000000 86.6
2020-08-01 00:10:00 68.2 69.4 57.8 68.2 68.2 0.0 0.0 0.0 54.7 0.0 0.00 0.0000000 86.4
2020-08-01 00:15:00 68.7 68.8 58.0 68.7 68.7 1.9 2.6 0.9 61.3 57.6 0.00 0.0000000 86.3
2020-08-01 00:20:00 69.2 67.0 57.8 69.2 69.2 1.3 2.8 1.5 52.6 54.8 0.00 0.0000000 86.1
2020-08-01 00:25:00 68.8 67.9 57.8 68.8 68.8 0.0 1.3 0.1 46.8 31.2 0.00 0.0000000 86.0
2020-08-01 00:30:00 68.3 70.6 58.3 68.3 68.3 0.0 0.0 0.0 112.4 0.0 0.00 0.0000000 85.9
2020-08-01 00:35:00 67.7 72.6 58.6 67.7 67.7 0.0 0.8 0.0 135.8 146.7 0.00 0.0000000 85.7
2020-08-01 00:40:00 67.2 74.0 58.6 67.2 67.2 0.0 0.0 0.0 154.0 0.0 0.00 0.0000000 85.6
2020-08-01 00:45:00 66.8 73.8 58.2 66.8 66.8 0.0 0.0 0.0 160.5 0.0 0.00 0.0000000 85.5
2020-08-01 00:50:00 66.6 74.5 58.2 66.6 66.6 0.0 0.0 0.0 84.4 0.0 0.00 0.0000000 85.4
2020-08-01 00:55:00 67.0 72.3 57.8 67.0 67.0 0.0 1.0 0.1 76.3 54.3 0.00 0.0000000 85.2
2020-08-01 01:00:00 66.6 74.3 58.2 66.6 66.6 0.0 1.9 0.5 132.0 50.2 0.00 0.0000000 85.1
2020-08-01 01:05:00 66.4 76.3 58.7 66.4 66.4 0.0 0.0 0.0 172.7 0.0 0.00 0.0000000 85.0
2020-08-01 01:10:00 66.2 76.2 58.5 66.2 66.2 0.0 0.0 0.0 21.8 0.0 0.00 0.0000000 84.9
2020-08-01 01:15:00 66.2 74.4 57.9 66.2 66.2 0.0 1.9 0.5 27.0 356.0 0.00 0.0000000 84.8
2020-08-01 01:20:00 66.5 72.7 57.5 66.5 66.5 0.0 0.0 0.0 47.8 0.0 0.00 0.0000000 84.7
2020-08-01 01:25:00 66.6 72.7 57.6 66.6 66.6 0.0 0.0 0.0 154.4 0.0 0.00 0.0000000 84.5
2020-08-01 01:30:00 66.5 72.6 57.4 66.5 66.5 0.0 0.0 0.0 232.3 0.0 0.00 0.0000000 84.4
2020-08-01 01:35:00 66.3 72.5 57.2 66.3 66.3 0.0 0.0 0.0 14.9 0.0 0.00 0.0000000 84.3
2020-08-01 01:40:00 66.4 73.3 57.6 66.4 66.4 0.0 1.0 0.1 56.8 36.5 0.00 0.0000000 84.2
2020-08-01 01:45:00 66.1 72.8 57.1 66.1 66.1 0.0 0.0 0.0 340.9 0.0 0.00 0.0000000 84.1
2020-08-01 01:50:00 66.1 72.6 57.0 66.1 66.1 1.5 2.2 0.6 12.1 19.7 0.00 0.0000000 84.0
2020-08-01 01:55:00 66.2 71.2 56.6 66.2 66.2 0.0 2.4 0.7 79.7 17.3 0.00 0.0000000 83.9
2020-08-01 02:00:00 65.7 75.3 57.7 65.7 65.7 0.0 2.1 0.7 139.0 163.3 0.00 0.0000000 83.8
2020-08-01 02:05:00 65.1 77.0 57.7 65.1 65.1 0.8 3.0 1.3 163.4 160.2 0.00 0.0000000 83.6
2020-08-01 02:10:00 64.8 76.6 57.3 64.8 64.8 0.0 1.7 0.3 166.2 168.4 0.00 0.0000000 83.5
2020-08-01 02:15:00 64.7 77.8 57.6 64.7 64.7 0.0 0.0 0.0 311.3 0.0 0.00 0.0000000 83.4
2020-08-01 02:20:00 64.3 78.5 57.5 64.3 64.3 2.1 2.2 0.4 296.1 291.5 0.00 0.0000000 83.3
2020-08-01 02:25:00 64.3 79.3 57.8 64.3 64.3 1.3 3.0 1.8 197.7 257.7 0.00 0.0000000 83.2
2020-08-01 02:30:00 63.7 80.7 57.6 63.7 63.7 1.2 2.8 1.2 1.8 193.1 0.00 0.0000000 83.1
2020-08-01 02:35:00 63.8 80.5 57.7 63.8 63.8 0.0 1.3 0.5 190.3 41.2 0.00 0.0000000 83.0
2020-08-01 02:40:00 63.8 81.1 57.9 63.8 63.8 0.0 0.8 0.0 75.8 224.0 0.00 0.0000000 82.9
2020-08-01 02:45:00 63.9 79.0 57.3 63.9 63.9 0.0 0.0 0.0 0.0 0.0 0.00 0.0000000 82.8
2020-08-01 02:50:00 63.6 81.1 57.7 63.6 63.6 0.0 0.8 0.1 71.5 75.4 0.00 0.0000000 82.7
2020-08-01 02:55:00 62.8 84.2 57.9 62.8 62.8 0.0 1.7 0.1 56.3 58.9 0.00 0.0000000 82.5
2020-08-01 03:00:00 62.6 83.0 57.4 62.6 62.6 0.0 0.0 0.0 346.0 0.0 0.00 0.0000000 82.4
2020-08-01 03:05:00 63.1 80.7 57.1 63.1 63.1 0.0 0.8 0.1 33.3 260.3 0.00 0.0000000 82.3
2020-08-01 03:10:00 63.3 80.5 57.2 63.3 63.3 0.0 0.0 0.0 3.2 0.0 0.00 0.0000000 82.2
2020-08-01 03:15:00 62.7 81.5 56.9 62.7 62.7 0.0 2.2 0.7 54.5 8.7 0.00 0.0000000 82.1
2020-08-01 03:20:00 62.4 79.3 55.9 62.4 62.4 2.2 3.0 1.2 7.3 39.8 0.00 0.0000000 82.0
2020-08-01 03:25:00 62.7 75.7 55.0 62.7 62.7 0.0 4.7 1.3 43.5 303.0 0.00 0.0000000 81.9
2020-08-01 03:30:00 63.0 73.7 54.5 63.0 63.0 0.0 1.2 0.1 200.1 10.3 0.00 0.0000000 81.8
2020-08-01 03:35:00 63.6 73.5 55.0 63.6 63.6 0.8 1.2 0.1 185.4 274.8 0.00 0.0000000 81.7
2020-08-01 03:40:00 63.0 78.1 56.1 63.0 63.0 0.0 1.9 0.6 178.0 187.3 0.00 0.0000000 81.6
2020-08-01 03:45:00 62.6 77.9 55.6 62.6 62.6 0.0 0.0 0.0 130.6 0.0 0.00 0.0000000 81.5
2020-08-01 03:50:00 62.3 79.3 55.8 62.3 62.3 0.0 0.0 0.0 185.2 0.0 0.00 0.0000000 81.4
2020-08-01 03:55:00 62.2 80.5 56.1 62.2 62.2 0.0 1.2 0.2 124.6 200.9 0.00 0.0000000 81.3
2020-08-01 04:00:00 62.2 81.2 56.4 62.2 62.2 0.0 1.0 0.1 104.8 135.1 0.00 0.0000000 81.2
2020-08-01 04:05:00 62.1 81.5 56.3 62.1 62.1 0.0 0.0 0.0 95.4 0.0 0.00 0.0000000 81.1
2020-08-01 04:10:00 61.6 82.6 56.3 61.6 61.6 0.0 0.0 0.0 209.7 0.0 0.00 0.0000000 81.0
2020-08-01 04:15:00 61.3 84.0 56.4 61.3 61.3 0.0 0.0 0.0 209.5 0.0 0.00 0.0000000 80.9
2020-08-01 04:20:00 61.1 84.5 56.4 61.1 61.1 0.0 0.0 0.0 237.5 0.0 0.00 0.0000000 80.8
2020-08-01 04:25:00 61.0 83.9 56.1 61.0 61.0 0.0 0.0 0.0 225.9 0.0 0.00 0.0000000 80.7
2020-08-01 04:30:00 60.7 84.9 56.1 60.7 60.7 0.0 0.0 0.0 240.0 0.0 0.00 0.0000000 80.6
2020-08-01 04:35:00 60.7 85.3 56.2 60.7 60.7 0.0 0.0 0.0 178.8 0.0 0.00 0.0000000 80.5
2020-08-01 04:40:00 60.7 84.7 56.1 60.7 60.7 0.0 0.0 0.0 152.3 0.0 0.00 0.0000000 80.4
2020-08-01 04:45:00 60.7 84.5 56.0 60.7 60.7 0.0 0.0 0.0 144.5 0.0 0.00 0.0000000 80.3
2020-08-01 04:50:00 60.5 85.0 55.9 60.5 60.5 0.0 0.0 0.0 133.8 0.0 0.00 0.0000000 80.2
2020-08-01 04:55:00 60.5 86.7 56.6 60.5 60.5 0.0 0.0 0.0 54.1 0.0 0.00 0.0000000 80.1
2020-08-01 05:00:00 60.4 84.6 55.7 60.4 60.4 0.0 0.0 0.0 44.9 0.0 0.00 0.0000000 80.0
2020-08-01 05:05:00 60.0 86.6 56.0 60.0 60.0 0.0 0.0 0.0 278.0 0.0 0.00 0.0000000 79.9
2020-08-01 05:10:00 60.3 86.6 56.3 60.3 60.3 0.0 0.0 0.0 195.8 0.0 0.00 0.0000000 79.9
2020-08-01 05:15:00 60.0 86.5 56.0 60.0 60.0 0.0 0.0 0.0 253.7 0.0 0.00 0.0000000 79.8
2020-08-01 05:20:00 60.1 85.0 55.5 60.1 60.1 0.0 0.0 0.0 173.7 0.0 0.00 0.0000000 79.7
2020-08-01 05:25:00 59.9 85.7 55.6 59.9 59.9 0.0 0.0 0.0 263.2 0.0 0.00 0.0000000 79.6
2020-08-01 05:30:00 59.8 85.9 55.5 59.8 59.8 0.0 0.0 0.0 115.2 0.0 0.00 0.0000000 79.5
2020-08-01 05:35:00 59.8 88.0 56.3 59.8 59.8 0.0 0.0 0.0 100.0 0.0 0.00 0.0000000 79.4
2020-08-01 05:40:00 59.5 88.3 56.0 59.5 59.5 0.0 0.0 0.0 154.1 0.0 0.00 0.0000000 79.3
2020-08-01 05:45:00 59.6 88.8 56.3 59.6 59.6 0.0 1.7 0.4 168.2 189.9 0.00 0.0000000 79.3
2020-08-01 05:50:00 59.6 88.4 56.2 59.6 59.6 0.0 0.0 0.0 179.4 0.0 0.00 0.0000000 79.2
2020-08-01 05:55:00 59.6 88.5 56.2 59.6 59.6 0.0 0.0 0.0 227.6 0.0 0.00 0.0000000 79.1
2020-08-01 06:00:00 59.5 88.4 56.0 59.5 59.5 0.0 0.0 0.0 304.6 0.0 0.00 0.0000000 79.0
2020-08-01 06:05:00 59.6 87.7 56.0 59.6 59.6 0.0 0.0 0.0 11.5 0.0 0.00 0.0010000 78.9
2020-08-01 06:10:00 59.8 87.5 56.0 59.8 59.8 0.0 0.0 0.0 131.6 0.0 0.00 0.0010000 78.8
2020-08-01 06:15:00 59.8 86.5 55.7 59.8 59.8 0.0 0.0 0.0 108.9 0.0 0.00 0.0030000 78.7
2020-08-01 06:20:00 59.5 87.3 55.7 59.5 59.5 0.0 0.0 0.0 346.6 0.0 0.00 0.0040000 78.6
2020-08-01 06:25:00 59.5 87.7 55.8 59.5 59.5 0.0 0.0 0.0 19.3 0.0 0.00 0.0070000 78.6
2020-08-01 06:30:00 59.3 87.7 55.6 59.3 59.3 0.0 0.0 0.0 42.0 0.0 0.00 0.0090000 78.5
2020-08-01 06:35:00 59.2 88.5 55.8 59.2 59.2 0.0 0.0 0.0 69.0 0.0 0.00 0.0120000 78.4
2020-08-01 06:40:00 59.5 88.2 56.0 59.5 59.5 0.0 0.0 0.0 99.0 0.0 0.00 0.0140000 78.4
2020-08-01 06:45:00 59.6 87.8 56.0 59.6 59.6 0.0 0.0 0.0 5.0 0.0 0.00 0.0160000 78.2
2020-08-01 06:50:00 59.8 87.7 56.1 59.8 59.8 0.0 0.0 0.0 347.6 0.0 0.00 0.0190000 78.2
2020-08-01 06:55:00 60.0 87.0 56.1 60.0 60.0 0.0 0.0 0.0 108.3 0.0 0.00 0.0210000 78.1
2020-08-01 07:00:00 60.2 84.9 55.7 60.2 60.2 0.0 0.0 0.0 63.9 0.0 0.00 0.0230000 78.0
2020-08-01 07:05:00 60.0 87.4 56.2 60.0 60.0 0.0 0.8 0.0 28.8 35.7 0.00 0.0260000 78.0
2020-08-01 07:10:00 60.1 86.0 55.9 60.1 60.1 0.0 0.0 0.0 0.6 0.0 0.00 0.0510000 77.9
2020-08-01 07:15:00 60.2 84.0 55.3 60.2 60.2 0.0 0.0 0.0 1.2 0.0 0.00 0.0420000 77.9
2020-08-01 07:20:00 60.7 82.7 55.4 60.7 60.7 0.0 0.0 0.0 61.6 0.0 0.00 0.0260000 77.8
2020-08-01 07:25:00 61.1 80.7 55.1 61.1 61.1 0.0 0.0 0.0 42.6 0.0 0.00 0.0360000 77.7
2020-08-01 07:30:00 62.0 80.0 55.7 62.0 62.0 0.0 0.8 0.0 48.5 42.7 0.00 0.0440000 77.7
2020-08-01 07:35:00 62.5 78.8 55.9 62.5 62.5 0.0 0.0 0.0 72.3 0.0 0.00 0.0380000 77.6
2020-08-01 07:40:00 62.6 78.3 55.8 62.6 62.6 0.0 0.0 0.0 249.7 0.0 0.00 0.0610000 77.6
2020-08-01 07:45:00 62.9 77.5 55.8 62.9 62.9 0.0 0.0 0.0 113.4 0.0 0.00 0.1980000 77.5
2020-08-01 07:50:00 63.8 77.6 56.7 63.8 63.8 0.0 0.0 0.0 41.2 0.0 0.00 0.1770000 77.5
2020-08-01 07:55:00 64.5 77.0 57.1 64.5 64.5 2.2 2.2 0.8 42.8 49.0 0.00 0.0430000 77.4
2020-08-01 08:00:00 65.5 75.6 57.6 65.5 65.5 1.2 3.5 1.9 59.0 47.9 0.00 0.2460000 77.4
2020-08-01 08:05:00 66.7 71.5 57.1 66.7 66.7 0.0 2.1 0.7 36.1 52.6 0.00 0.2380000 77.3
2020-08-01 08:10:00 68.2 67.8 57.2 68.2 68.2 0.0 1.2 0.1 46.1 70.9 0.00 0.2740000 77.3
2020-08-01 08:15:00 69.5 63.7 56.6 69.5 69.5 3.1 4.2 1.8 25.8 44.3 0.00 0.2900000 77.3
2020-08-01 08:20:00 70.3 57.5 54.6 70.3 70.3 3.0 4.2 3.2 32.1 46.9 0.00 0.3070000 77.2
2020-08-01 08:25:00 70.7 57.9 55.2 70.7 70.7 4.7 5.1 3.8 41.3 43.7 0.00 0.3240000 77.2
2020-08-01 08:30:00 70.9 61.4 57.0 70.9 70.9 6.0 6.0 4.4 50.2 51.9 0.00 0.3530000 77.2
2020-08-01 08:35:00 71.0 61.5 57.0 71.0 71.0 4.0 6.0 4.3 68.5 46.0 0.00 0.2130000 77.1
2020-08-01 08:40:00 71.5 59.3 56.6 71.5 71.5 4.2 6.7 3.6 6.0 51.0 0.00 0.3800000 77.1
2020-08-01 08:45:00 71.6 57.2 55.7 71.6 71.6 4.9 6.2 4.2 41.6 48.1 0.00 0.3440000 77.1
2020-08-01 08:50:00 71.9 56.5 55.6 71.9 71.9 3.1 6.3 4.2 28.5 47.3 0.00 0.1010000 77.1
2020-08-01 08:55:00 71.7 58.6 56.4 71.7 71.7 3.8 6.2 4.4 63.1 45.4 0.00 0.4120000 77.1
2020-08-01 09:00:00 72.2 55.1 55.2 72.2 72.2 4.0 4.9 3.5 15.7 54.6 0.00 0.4300000 77.2
2020-08-01 09:05:00 72.9 55.5 56.0 72.9 72.9 4.0 6.0 3.6 71.7 37.9 0.00 0.4490000 77.2
2020-08-01 09:10:00 73.3 53.5 55.4 73.3 73.3 4.2 5.1 3.6 58.6 52.6 0.00 0.4620000 77.3
2020-08-01 09:15:00 74.2 54.2 56.6 74.2 74.2 3.7 5.8 3.7 41.6 39.8 0.00 0.4820000 77.4
2020-08-01 09:20:00 74.6 51.4 55.5 74.6 74.6 4.4 4.9 3.9 75.4 48.6 0.00 0.5060000 77.5
2020-08-01 09:25:00 74.9 48.1 54.0 74.9 74.9 1.5 4.6 3.3 25.0 37.8 0.00 0.5150000 77.6
2020-08-01 09:30:00 75.7 51.4 56.5 75.7 75.7 4.2 4.4 2.7 40.5 57.6 0.00 0.5390000 77.7
2020-08-01 09:35:00 75.8 47.8 54.6 75.8 75.8 1.7 4.6 2.8 82.8 39.2 0.00 0.5580000 77.8
2020-08-01 09:40:00 76.6 45.2 53.8 76.6 76.6 3.7 4.6 2.3 39.8 70.9 0.00 0.5640000 78.0
2020-08-01 09:45:00 77.2 46.9 55.4 77.2 77.2 3.8 3.8 1.8 26.9 57.6 0.00 0.5660000 78.2
2020-08-01 09:50:00 77.5 45.2 54.6 77.5 77.5 2.6 4.6 2.3 63.8 47.5 0.00 0.5770000 78.4
2020-08-01 09:55:00 77.7 44.4 54.3 77.7 77.7 1.5 4.2 2.2 79.4 55.4 0.00 0.5880000 78.5
2020-08-01 10:00:00 77.9 42.9 53.5 77.9 77.9 2.8 4.9 2.5 84.7 62.5 0.00 0.5990000 78.7
2020-08-01 10:05:00 77.8 44.0 54.2 77.8 77.8 4.9 4.9 3.2 27.0 48.8 0.00 0.6130000 79.0
2020-08-01 10:10:00 78.4 46.2 56.0 78.4 78.4 1.3 5.5 2.7 92.6 57.4 0.00 0.6250000 79.2
2020-08-01 10:15:00 79.3 46.8 57.2 79.3 79.3 0.0 3.0 1.2 60.4 68.1 0.00 0.6440000 79.4
2020-08-01 10:20:00 80.4 44.8 57.0 80.4 80.6 1.7 3.8 1.3 40.5 65.8 0.00 0.5940000 79.6
2020-08-01 10:25:00 79.2 46.3 56.8 79.2 79.2 3.3 4.7 2.5 47.7 65.8 0.00 0.6790000 79.9
2020-08-01 10:30:00 78.3 46.4 56.1 78.3 78.3 2.6 4.7 3.4 111.4 46.2 0.00 0.6730000 80.1
2020-08-01 10:35:00 79.0 44.7 55.7 79.0 79.0 2.2 4.4 1.6 126.3 74.2 0.00 0.6430000 80.3
2020-08-01 10:40:00 79.1 41.8 54.0 79.1 79.1 3.3 5.5 2.8 43.3 52.8 0.00 0.7180000 80.6
2020-08-01 10:45:00 80.1 42.4 55.2 80.1 80.2 0.8 4.4 1.8 126.1 56.5 0.00 0.7270000 80.9
2020-08-01 10:50:00 79.7 40.8 53.7 79.7 79.7 3.5 5.3 2.8 41.1 44.7 0.00 0.7270000 81.1
2020-08-01 10:55:00 80.3 45.0 57.1 80.3 80.6 0.0 5.1 2.8 73.7 61.8 0.00 0.6950000 81.4
2020-08-01 11:00:00 80.6 43.0 56.0 80.6 80.6 3.5 4.9 2.5 17.1 50.1 0.00 0.7310000 81.7
2020-08-01 11:05:00 80.9 39.0 53.6 80.9 80.9 2.4 4.6 2.4 38.0 55.5 0.00 0.7410000 82.0
2020-08-01 11:10:00 80.9 41.5 55.3 80.9 80.7 1.9 4.9 2.7 38.0 64.2 0.00 0.7490000 82.2
2020-08-01 11:15:00 81.4 39.7 54.6 81.4 81.4 0.0 4.9 2.6 44.2 55.2 0.00 0.7540000 82.5
2020-08-01 11:20:00 81.6 38.6 54.0 81.6 81.6 0.8 3.0 1.3 10.4 72.8 0.00 0.7650000 82.8
2020-08-01 11:25:00 82.3 36.1 52.8 82.3 82.3 1.9 4.7 1.8 294.7 53.2 0.00 0.7740000 83.1
2020-08-01 11:30:00 82.1 36.5 52.9 82.1 82.1 1.7 3.1 1.1 24.9 40.7 0.00 0.7870000 83.4
2020-08-01 11:35:00 82.2 37.6 53.8 82.2 82.2 2.8 3.5 2.2 3.1 53.3 0.00 0.7930000 83.7
2020-08-01 11:40:00 81.6 38.4 53.9 81.6 81.6 0.0 2.6 1.3 158.5 248.6 0.00 0.8130000 84.0
2020-08-01 11:45:00 82.7 36.7 53.6 82.7 82.7 1.7 3.8 2.5 5.2 52.8 0.00 0.8510000 84.3
2020-08-01 11:50:00 83.4 34.5 52.6 83.4 83.4 2.6 3.5 1.9 56.7 124.7 0.00 0.8810000 84.6
2020-08-01 11:55:00 83.6 35.2 53.2 83.6 83.6 2.6 3.7 1.7 52.5 36.8 0.00 0.7150000 84.9
2020-08-01 12:00:00 84.3 32.6 51.8 84.3 84.3 5.3 5.3 1.8 157.8 87.0 0.00 0.9300000 85.2
2020-08-01 12:05:00 83.5 34.7 52.8 83.5 83.5 0.8 4.4 1.9 24.1 96.8 0.00 0.8460000 85.6
2020-08-01 12:10:00 83.5 34.8 52.8 83.5 83.5 1.0 4.4 1.5 255.3 325.1 0.00 0.8400000 85.9
2020-08-01 12:15:00 84.6 41.3 58.5 84.6 84.2 0.0 2.8 1.2 41.1 96.5 0.00 0.8360000 86.2
2020-08-01 12:20:00 84.5 34.0 53.0 84.5 84.5 2.8 4.4 2.1 168.8 179.3 0.00 0.8390000 86.5
2020-08-01 12:25:00 84.3 33.5 52.5 84.3 84.3 2.4 4.0 2.1 231.6 186.6 0.00 0.8450000 86.8
2020-08-01 12:30:00 85.2 34.1 53.7 85.2 85.2 1.9 3.0 1.3 214.0 194.6 0.00 0.8590000 87.1
2020-08-01 12:35:00 85.3 37.5 56.4 85.3 85.3 1.0 3.5 2.3 222.6 202.4 0.00 0.8960000 87.4
2020-08-01 12:40:00 85.8 33.2 53.6 85.8 85.8 3.0 3.7 1.9 254.8 202.9 0.00 0.9750000 87.7
2020-08-01 12:45:00 85.2 31.6 51.6 85.2 85.2 4.4 4.4 2.3 300.5 260.2 0.00 0.9160000 88.0
2020-08-01 12:50:00 85.5 35.6 55.2 85.5 85.5 0.8 4.4 2.1 266.1 167.7 0.00 0.8100000 88.3
2020-08-01 12:55:00 86.1 34.5 54.9 86.1 86.1 1.7 3.3 1.8 203.0 184.9 0.00 0.4470000 88.6
2020-08-01 13:00:00 86.6 31.6 52.9 86.6 86.6 4.0 4.6 2.1 224.6 158.8 0.00 0.3550000 88.9
2020-08-01 13:05:00 85.5 31.1 51.5 85.5 85.5 2.8 4.2 2.4 202.9 215.6 0.00 0.6480000 89.2
2020-08-01 13:10:00 86.6 32.6 53.7 86.6 86.6 2.1 4.0 2.2 194.1 137.6 0.00 1.0040000 89.5
2020-08-01 13:15:00 88.2 31.1 53.8 88.2 88.2 0.8 5.5 2.4 239.4 170.2 0.00 0.7200000 89.7
2020-08-01 13:20:00 87.7 30.0 52.4 87.7 87.7 2.4 3.5 2.0 202.2 198.5 0.00 0.8100000 90.1
2020-08-01 13:25:00 87.5 29.6 51.9 87.5 87.5 3.3 5.3 2.9 194.2 213.6 0.00 0.9860000 90.3
2020-08-01 13:30:00 87.6 28.1 50.5 87.6 87.6 3.3 3.8 2.5 170.2 197.2 0.00 0.5200000 90.5
2020-08-01 13:35:00 87.2 31.3 53.2 87.2 87.2 1.7 3.7 2.7 235.7 77.7 0.00 0.8880000 90.8
2020-08-01 13:40:00 88.9 29.8 53.3 88.9 88.9 2.2 3.0 1.6 172.3 194.4 0.00 0.8670000 91.0
2020-08-01 13:45:00 89.1 25.7 49.4 89.1 89.1 2.4 4.6 1.8 13.8 186.1 0.00 0.8550000 91.3
2020-08-01 13:50:00 89.0 26.3 50.0 89.0 89.0 3.0 4.7 2.7 260.4 213.7 0.00 0.8490000 91.5
2020-08-01 13:55:00 87.9 26.9 49.7 87.9 87.9 1.2 7.1 3.0 0.8 256.7 0.00 0.8440000 91.8
2020-08-01 14:00:00 88.7 28.8 52.2 88.7 88.7 1.0 4.6 2.0 67.4 357.1 0.00 0.8480000 92.0
2020-08-01 14:05:00 89.3 24.8 48.7 89.3 89.3 1.5 3.5 2.1 199.5 182.3 0.00 0.8460000 92.2
2020-08-01 14:10:00 89.9 24.2 48.5 89.9 89.9 2.1 3.7 1.3 195.4 120.7 0.00 0.8440000 92.5
2020-08-01 14:15:00 89.8 28.8 53.1 89.8 89.8 1.3 3.3 1.9 215.1 192.0 0.00 0.8400000 92.8
2020-08-01 14:20:00 90.1 31.5 55.9 90.1 90.1 0.8 3.8 1.8 221.1 184.8 0.00 0.8390000 93.0
2020-08-01 14:25:00 90.2 24.7 49.3 90.2 90.2 1.5 4.0 2.0 78.2 137.6 0.00 0.8320000 93.3
2020-08-01 14:30:00 90.7 24.9 50.0 90.7 90.7 2.8 3.8 2.4 161.8 153.7 0.00 0.8240000 93.5
2020-08-01 14:35:00 90.5 24.0 48.7 90.5 90.5 2.2 4.2 2.5 37.1 174.8 0.00 0.8190000 93.8
2020-08-01 14:40:00 90.6 25.4 50.5 90.6 90.6 2.8 3.5 2.0 40.7 66.0 0.00 0.8150000 94.0
2020-08-01 14:45:00 90.9 23.8 48.9 90.9 90.9 1.2 3.5 1.5 190.6 59.8 0.00 0.8090000 94.3
2020-08-01 14:50:00 91.1 22.0 47.0 91.1 91.1 0.8 3.7 1.8 96.3 204.2 0.00 0.8020000 94.5
2020-08-01 14:55:00 90.5 23.0 47.6 90.5 90.5 3.0 4.0 2.0 231.5 194.2 0.00 0.7950000 94.7
2020-08-01 15:00:00 90.5 23.9 48.6 90.5 90.5 2.6 3.7 2.5 59.7 213.1 0.00 0.7870000 94.9
2020-08-01 15:05:00 91.5 23.4 49.0 91.5 91.5 2.8 3.1 1.9 55.1 86.5 0.00 0.7820000 95.2
2020-08-01 15:10:00 91.7 27.1 53.0 91.7 91.7 0.0 2.8 1.3 209.4 53.3 0.00 0.7740000 95.4
2020-08-01 15:15:00 92.4 23.5 49.8 92.4 92.4 0.8 3.0 0.7 228.7 189.8 0.00 0.7690000 95.6
2020-08-01 15:20:00 93.5 21.8 48.7 93.5 93.5 2.2 3.7 1.3 57.0 76.8 0.00 0.7620000 95.8
2020-08-01 15:25:00 93.7 25.2 52.8 93.7 93.7 1.3 3.3 1.4 97.4 93.7 0.00 0.7510000 96.0
2020-08-01 15:30:00 93.1 21.4 47.9 93.1 93.1 1.5 3.7 2.1 92.3 51.8 0.00 0.7430000 96.2
2020-08-01 15:35:00 93.0 25.1 52.1 93.0 93.0 0.0 3.3 0.9 253.7 68.6 0.00 0.7320000 96.4
2020-08-01 15:40:00 92.9 21.0 47.2 92.9 92.9 2.6 3.3 2.2 75.0 52.5 0.00 0.7220000 96.6
2020-08-01 15:45:00 92.5 23.7 50.2 92.5 92.5 3.7 4.0 2.7 88.7 54.8 0.00 0.7140000 96.8
2020-08-01 15:50:00 93.0 21.3 47.8 93.0 93.0 2.1 3.5 2.0 55.5 136.4 0.00 0.7050000 96.9
2020-08-01 15:55:00 92.6 23.2 49.7 92.6 92.6 1.0 2.6 1.7 67.2 82.7 0.00 0.6930000 97.1
2020-08-01 16:00:00 93.1 21.7 48.2 93.1 93.1 0.0 3.5 1.2 166.3 181.4 0.00 0.6820000 97.2
2020-08-01 16:05:00 93.9 21.9 49.2 93.9 93.9 3.8 3.8 1.1 198.3 222.1 0.00 0.6720000 97.4
2020-08-01 16:10:00 92.7 20.6 46.5 92.7 92.7 2.1 3.1 2.2 194.8 198.0 0.00 0.6610000 97.5
2020-08-01 16:15:00 93.1 20.3 46.5 93.1 93.1 1.5 3.1 1.3 61.3 114.0 0.00 0.6510000 97.6
2020-08-01 16:20:00 94.9 21.5 49.6 94.9 94.9 1.0 1.5 0.6 68.3 117.4 0.00 0.6380000 97.7
2020-08-01 16:25:00 94.9 22.3 50.5 94.9 94.9 1.9 3.5 1.7 201.5 56.8 0.00 0.6240000 97.8
2020-08-01 16:30:00 93.1 20.1 46.2 93.1 93.1 1.9 3.5 2.4 251.5 202.9 0.00 0.6130000 97.8
2020-08-01 16:35:00 93.7 18.4 44.4 93.7 93.7 2.4 3.0 1.3 277.3 162.1 0.00 0.6020000 97.9
2020-08-01 16:40:00 93.8 18.4 44.4 93.8 93.8 2.1 3.3 1.8 62.2 38.7 0.00 0.5920000 97.9
2020-08-01 16:45:00 94.5 19.0 45.9 94.5 94.5 1.0 1.9 0.8 108.9 90.6 0.00 0.5890000 97.9
2020-08-01 16:50:00 94.7 19.8 47.2 94.7 94.7 1.3 1.9 0.6 56.0 109.7 0.00 0.0720000 97.9
2020-08-01 16:55:00 93.1 21.8 48.5 93.1 93.1 0.0 1.5 0.4 42.6 131.7 0.00 0.0870000 97.9
2020-08-01 17:00:00 90.8 22.2 46.9 90.8 90.8 0.0 0.0 0.0 177.2 0.0 0.00 0.0990000 97.9
2020-08-01 17:05:00 89.1 24.9 48.6 89.1 89.1 0.0 0.0 0.0 214.3 0.0 0.00 0.1110000 97.9
2020-08-01 17:10:00 88.4 27.7 50.8 88.4 88.4 0.0 0.0 0.0 335.8 0.0 0.00 0.1140000 97.8
2020-08-01 17:15:00 88.4 27.2 50.4 88.4 88.4 0.0 0.0 0.0 111.0 0.0 0.00 0.1150000 97.7
2020-08-01 17:20:00 87.1 28.8 50.8 87.1 87.1 0.0 2.4 0.4 196.6 206.3 0.00 0.1160000 97.6
2020-08-01 17:25:00 86.9 26.8 48.7 86.9 86.9 0.0 0.8 0.1 176.9 204.7 0.00 0.1230000 97.6
2020-08-01 17:30:00 87.3 24.8 47.0 87.3 87.3 0.0 0.8 0.0 199.9 196.6 0.00 0.1250000 97.4
2020-08-01 17:35:00 87.1 30.0 51.9 87.1 87.1 0.0 0.0 0.0 230.9 0.0 0.00 0.1160000 97.3
2020-08-01 17:40:00 86.4 32.1 53.1 86.4 86.4 0.0 0.0 0.0 198.4 0.0 0.00 0.1030000 97.2
2020-08-01 17:45:00 85.8 33.7 54.0 85.8 85.8 0.0 0.0 0.0 190.4 0.0 0.00 0.0910000 97.1
2020-08-01 17:50:00 85.7 31.1 51.7 85.7 85.7 0.0 0.0 0.0 183.0 0.0 0.00 0.0810000 96.9
2020-08-01 17:55:00 85.6 34.3 54.2 85.6 85.6 0.0 0.0 0.0 218.3 0.0 0.00 0.0750000 96.8
2020-08-01 18:00:00 85.3 29.4 49.9 85.3 85.3 1.5 1.7 0.4 229.5 233.6 0.00 0.0740000 96.7
2020-08-01 18:05:00 86.0 32.4 53.1 86.0 86.0 1.3 1.7 0.8 244.0 234.0 0.00 0.0730000 96.6
2020-08-01 18:10:00 86.2 29.5 50.7 86.2 86.2 1.7 3.7 2.2 213.3 239.8 0.00 0.0640000 96.4
2020-08-01 18:15:00 86.5 28.3 49.8 86.5 86.5 0.8 2.4 1.7 235.8 229.9 0.00 0.0510000 96.3
2020-08-01 18:20:00 87.3 25.6 47.8 87.3 87.3 2.4 4.0 1.8 239.6 247.6 0.00 0.0430000 96.1
2020-08-01 18:25:00 87.8 23.3 45.8 87.8 87.8 2.8 3.8 2.4 314.9 249.0 0.00 0.0410000 96.0
2020-08-01 18:30:00 88.6 22.3 45.3 88.6 88.6 0.8 4.4 2.3 267.1 272.3 0.00 0.0390000 95.9
2020-08-01 18:35:00 89.1 22.1 45.5 89.1 89.1 1.3 7.2 3.1 205.5 259.7 0.00 0.0370000 95.7
2020-08-01 18:40:00 88.9 22.7 45.9 88.9 88.9 0.0 3.3 1.0 279.3 246.7 0.00 0.0440000 95.6
2020-08-01 18:45:00 89.1 21.8 45.1 89.1 89.1 2.4 4.4 1.9 267.8 281.1 0.00 0.0560000 95.4
2020-08-01 18:50:00 89.3 22.3 45.8 89.3 89.3 0.0 3.3 1.3 201.2 266.0 0.00 0.1080000 95.3
2020-08-01 18:55:00 89.6 21.7 45.3 89.6 89.6 6.0 6.0 2.5 29.1 325.4 0.00 0.1790000 95.2
2020-08-01 19:00:00 90.0 22.1 46.1 90.0 90.0 5.3 7.6 4.3 50.0 18.4 0.00 0.1940000 95.0
2020-08-01 19:05:00 89.1 25.6 49.3 89.1 89.1 4.9 12.1 6.8 68.3 48.0 0.00 0.1000000 94.9
2020-08-01 19:10:00 87.8 26.6 49.3 87.8 87.8 5.6 8.0 3.4 53.1 75.1 0.00 0.1650000 94.7
2020-08-01 19:15:00 86.6 26.5 48.2 86.6 86.6 1.2 12.6 4.7 94.7 84.4 0.00 0.1370000 94.6
2020-08-01 19:20:00 85.6 27.2 48.0 85.6 85.6 0.8 9.9 3.3 104.1 86.8 0.00 0.1100000 94.5
2020-08-01 19:25:00 85.2 27.8 48.2 85.2 85.2 0.8 3.5 1.6 146.8 99.9 0.00 0.0280000 94.3
2020-08-01 19:30:00 83.8 30.5 49.6 83.8 83.8 2.2 4.6 1.2 149.1 97.3 0.00 0.0220000 94.2
2020-08-01 19:35:00 82.1 33.0 50.2 82.1 82.1 0.0 2.4 0.7 147.4 111.4 0.00 0.0200000 94.0
2020-08-01 19:40:00 81.2 35.3 51.2 81.2 81.2 0.0 4.6 0.7 115.2 124.7 0.00 0.0140000 93.9
2020-08-01 19:45:00 80.6 36.8 51.8 80.6 80.6 1.9 3.0 1.1 50.9 85.6 0.00 0.0080000 93.8
2020-08-01 19:50:00 79.4 38.8 52.2 79.4 79.4 1.3 4.4 2.7 132.7 48.7 0.00 0.0050000 93.6
2020-08-01 19:55:00 79.2 39.8 52.6 79.2 79.2 3.0 3.0 1.2 6.4 46.1 0.00 0.0040000 93.5
2020-08-01 20:00:00 78.6 38.1 51.0 78.6 78.6 3.1 3.5 2.2 77.3 50.4 0.00 0.0030000 93.3
2020-08-01 20:05:00 78.5 39.6 51.9 78.5 78.5 0.0 3.5 2.2 343.8 42.8 0.00 0.0040000 93.2
2020-08-01 20:10:00 78.2 40.4 52.1 78.2 78.2 2.4 3.5 1.0 198.3 204.2 0.00 0.0040000 93.0
2020-08-01 20:15:00 78.1 39.2 51.2 78.1 78.1 2.1 2.4 0.7 154.9 189.0 0.00 0.0010000 92.9
2020-08-01 20:20:00 78.3 37.4 50.2 78.3 78.3 0.0 1.9 0.1 220.6 133.7 0.00 0.0000000 92.8
2020-08-01 20:25:00 78.6 38.5 51.2 78.6 78.6 0.0 1.0 0.1 266.2 291.6 0.00 0.0000000 92.7
2020-08-01 20:30:00 78.6 38.5 51.2 78.6 78.6 2.1 2.1 0.1 281.2 282.2 0.00 0.0000000 92.5
2020-08-01 20:35:00 78.9 38.2 51.3 78.9 78.9 0.0 1.9 0.2 32.9 287.9 0.00 0.0000000 92.4
2020-08-01 20:40:00 79.0 38.7 51.7 79.0 79.0 0.0 0.0 0.0 164.6 0.0 0.00 0.0000000 92.3
2020-08-01 20:45:00 79.0 36.7 50.3 79.0 79.0 0.0 0.0 0.0 89.4 0.0 0.00 0.0000000 92.2
2020-08-01 20:50:00 79.1 39.2 52.2 79.1 79.1 2.4 2.8 1.0 69.3 49.8 0.00 0.0000000 92.0
2020-08-01 20:55:00 79.1 33.6 48.1 79.1 79.1 2.8 4.7 2.8 39.2 44.4 0.00 0.0000000 91.9
2020-08-01 21:00:00 79.2 36.6 50.4 79.2 79.2 4.2 5.1 3.9 53.4 44.4 0.00 0.0000000 91.7
2020-08-01 21:05:00 79.6 36.7 50.8 79.6 79.6 5.1 6.7 4.6 5.8 21.5 0.00 0.0000000 91.6
2020-08-01 21:10:00 78.9 39.6 52.3 78.9 78.9 3.8 5.3 3.6 29.2 27.4 0.00 0.0000000 91.5
2020-08-01 21:15:00 78.8 39.9 52.4 78.8 78.8 1.3 4.2 2.8 302.2 9.4 0.00 0.0000000 91.4
2020-08-01 21:20:00 78.8 40.3 52.7 78.8 78.8 3.7 3.7 1.5 203.5 187.0 0.00 0.0000000 91.3
2020-08-01 21:25:00 78.3 42.2 53.5 78.3 78.3 4.0 5.1 3.8 170.5 172.9 0.00 0.0000000 91.1
2020-08-01 21:30:00 78.0 42.8 53.5 78.0 78.0 0.0 6.3 3.8 99.8 182.9 0.00 0.0000000 91.0
2020-08-01 21:35:00 78.5 37.5 50.4 78.5 78.5 0.0 4.6 1.3 195.0 74.1 0.00 0.0000000 90.9
2020-08-01 21:40:00 78.8 37.0 50.4 78.8 78.8 0.0 2.2 0.2 4.2 96.1 0.00 0.0000000 90.8
2020-08-01 21:45:00 78.5 36.6 49.8 78.5 78.5 0.0 1.0 0.1 143.7 92.0 0.00 0.0000000 90.6
2020-08-01 21:50:00 78.5 37.5 50.5 78.5 78.5 0.0 4.6 0.7 321.9 151.5 0.00 0.0000000 90.5
2020-08-01 21:55:00 78.6 37.6 50.5 78.6 78.6 3.0 5.6 1.6 129.9 149.9 0.00 0.0000000 90.4
2020-08-01 22:00:00 78.2 38.2 50.7 78.2 78.2 2.1 4.7 2.2 195.0 184.7 0.00 0.0000000 90.3
2020-08-01 22:05:00 77.9 39.2 51.1 77.9 77.9 0.0 2.8 1.8 198.9 207.6 0.00 0.0000000 90.2
2020-08-01 22:10:00 77.1 40.2 51.1 77.1 77.1 0.0 1.0 0.1 256.9 135.9 0.00 0.0000000 90.1
2020-08-01 22:15:00 76.7 41.5 51.6 76.7 76.7 0.8 2.1 0.8 232.6 240.6 0.00 0.0000000 89.9
2020-08-01 22:20:00 76.6 40.8 51.0 76.6 76.6 0.0 3.0 0.9 188.9 212.1 0.00 0.0000000 89.8
2020-08-01 22:25:00 76.5 41.3 51.2 76.5 76.5 0.0 0.0 0.0 115.1 0.0 0.00 0.0000000 89.7
2020-08-01 22:30:00 76.0 41.4 50.9 76.0 76.0 0.0 0.0 0.0 192.0 0.0 0.00 0.0000000 89.6
2020-08-01 22:35:00 75.9 42.6 51.6 75.9 75.9 0.0 2.2 0.6 234.4 256.9 0.00 0.0000000 89.4
2020-08-01 22:40:00 75.9 42.5 51.4 75.9 75.9 2.8 3.7 1.9 250.9 243.4 0.00 0.0000000 89.3
2020-08-01 22:45:00 75.8 43.1 51.7 75.8 75.8 2.1 4.0 2.7 239.6 243.5 0.00 0.0000000 89.2
2020-08-01 22:50:00 75.5 43.4 51.7 75.5 75.5 0.0 2.8 1.0 288.3 259.1 0.00 0.0000000 89.0
2020-08-01 22:55:00 74.9 44.3 51.7 74.9 74.9 0.0 1.9 0.2 333.2 262.3 0.00 0.0000000 88.9
2020-08-01 23:00:00 74.6 42.5 50.3 74.6 74.6 3.0 3.0 0.7 237.3 257.3 0.00 0.0000000 88.8
2020-08-01 23:05:00 74.6 41.7 49.8 74.6 74.6 2.2 3.5 2.4 231.2 241.2 0.00 0.0000000 88.7
2020-08-01 23:10:00 74.7 41.4 49.7 74.7 74.7 1.5 3.5 2.3 252.3 242.9 0.00 0.0000000 88.5
2020-08-01 23:15:00 74.9 40.7 49.5 74.9 74.9 3.3 4.2 2.9 243.5 245.1 0.00 0.0000000 88.4
2020-08-01 23:20:00 75.4 39.9 49.3 75.4 75.4 4.4 5.5 3.8 240.8 247.7 0.00 0.0000000 88.3
2020-08-01 23:25:00 75.7 39.9 49.6 75.7 75.7 3.1 5.5 3.5 269.3 237.2 0.00 0.0000000 88.2
2020-08-01 23:30:00 76.0 40.1 50.0 76.0 76.0 0.0 3.8 2.3 210.4 227.8 0.00 0.0000000 88.1
2020-08-01 23:35:00 75.1 41.0 49.9 75.1 75.1 1.2 2.4 0.7 218.3 197.7 0.00 0.0000000 88.0
2020-08-01 23:40:00 74.9 42.2 50.4 74.9 74.9 0.8 2.4 0.6 245.2 237.9 0.00 0.0000000 87.8
2020-08-01 23:45:00 74.7 41.9 50.0 74.7 74.7 1.3 4.7 1.4 189.9 218.3 0.00 0.0000000 87.7
2020-08-01 23:50:00 74.7 42.0 50.1 74.7 74.7 0.0 2.6 1.2 232.1 227.0 0.00 0.0000000 87.6
2020-08-01 23:55:00 74.7 43.5 51.0 74.7 74.7 1.0 2.6 0.8 207.2 200.0 0.00 0.0000000 87.5
2020-08-02 00:00:00 74.8 43.6 51.2 74.8 74.8 0.8 4.2 1.4 186.3 218.8 0.00 0.0000000 87.4

Data is courtesy of the NM Climate Center. DO NOT USE IN LEGAL PROCEEDINGS.